Time;durP1;ratioP1;P1;durP2;ratioP2;P2;SDS_P1;SDS_P2;PMS_P1;PMS_P2;Temp;Humidity;BMP_temperature;BMP_pressure;BME280_temperature;BME280_humidity;BME280_pressure;Samples;Min_cycle;Max_cycle;Signal;HPM_P1;HPM_P2
2022/10/25 00:00:38;;;;;;;10.80;5.70;;;;;;;15.24;51.21;99962.16;4992011;28;20101;-79
2022/10/25 00:03:08;;;;;;;10.13;6.13;;;;;;;14.51;51.63;99837.81;4991844;28;20454;-79
2022/10/25 00:05:35;;;;;;;8.63;5.85;;;;;;;15.25;51.85;99963.78;4991704;28;20022;-79
2022/10/25 00:08:00;;;;;;;14.25;6.00;;;;;;;14.89;52.03;99920.66;4991756;28;20042;-79
2022/10/25 00:10:26;;;;;;;11.48;6.20;;;;;;;14.42;52.28;99858.41;4991864;28;20026;-79
2022/10/25 00:12:52;;;;;;;11.23;5.75;;;;;;;14.47;52.10;99865.81;4991744;28;20057;-79
2022/10/25 00:15:17;;;;;;;12.63;6.03;;;;;;;14.51;51.91;99857.25;4991603;28;20076;-79
2022/10/25 00:17:43;;;;;;;12.35;7.40;;;;;;;14.83;52.27;99922.22;4991621;28;20499;-79
2022/10/25 00:20:10;;;;;;;10.52;5.40;;;;;;;14.95;51.98;99957.09;4990378;28;20081;-79
2022/10/25 00:22:36;;;;;;;12.10;6.25;;;;;;;14.37;52.09;99849.38;4990630;28;20490;-79
2022/10/25 00:25:02;;;;;;;13.02;6.13;;;;;;;15.02;52.20;99957.94;4991689;28;20061;-79
2022/10/25 00:27:28;;;;;;;13.35;6.43;;;;;;;14.03;51.97;99784.56;4991571;28;20076;-79
2022/10/25 00:29:53;;;;;;;9.52;5.63;;;;;;;14.42;52.20;99839.81;4991805;28;20487;-79
2022/10/25 00:32:19;;;;;;;13.77;6.80;;;;;;;14.03;52.26;99789.88;4991851;28;20023;-79
2022/10/25 00:34:44;;;;;;;15.55;6.63;;;;;;;14.58;52.26;99881.19;4991738;28;20026;-79
2022/10/25 00:37:09;;;;;;;10.23;5.82;;;;;;;14.89;52.20;99948.06;4991591;28;20018;-79
2022/10/25 00:39:35;;;;;;;11.00;5.90;;;;;;;13.85;52.08;99755.88;4991477;28;20487;-79
2022/10/25 00:42:01;;;;;;;10.45;5.60;;;;;;;14.28;52.01;99816.81;4995416;28;20026;-79
2022/10/25 00:44:54;;;;;;;11.32;6.70;;;;;;;14.84;52.41;99904.44;4995478;28;20150;-79
2022/10/25 00:47:20;;;;;;;11.38;5.80;;;;;;;14.97;52.48;99938.28;4992861;28;20435;-79
2022/10/25 00:50:24;;;;;;;11.30;5.85;;;;;;;14.98;52.44;99934.59;4995122;28;20022;-79
2022/10/25 00:52:54;;;;;;;10.43;6.00;;;;;;;14.94;52.44;99928.88;4993942;28;20038;-79
2022/10/25 00:55:22;;;;;;;12.63;6.10;;;;;;;14.71;52.50;99891.91;4995015;28;20026;-79
2022/10/25 00:58:05;;;;;;;9.77;6.20;;;;;;;14.84;52.29;99955.78;4995106;28;20030;-79
2022/10/25 01:00:31;;;;;;;10.60;5.72;;;;;;;14.48;52.62;99902.81;4995000;28;20022;-79
2022/10/25 01:02:56;;;;;;;10.45;6.00;;;;;;;14.50;52.68;99908.75;4995079;28;20030;-79
2022/10/25 01:05:22;;;;;;;9.07;6.05;;;;;;;13.88;52.78;99792.63;4995110;28;20023;-79
2022/10/25 01:07:48;;;;;;;9.85;5.75;;;;;;;14.71;53.19;99936.25;4993538;28;20039;-79
2022/10/25 01:10:14;;;;;;;9.70;6.28;;;;;;;13.90;52.72;99797.75;4994818;28;20033;-79
2022/10/25 01:12:39;;;;;;;13.43;7.40;;;;;;;14.53;52.75;99915.50;4994900;28;20069;-79
2022/10/25 01:15:05;;;;;;;9.90;5.60;;;;;;;14.12;52.82;99838.34;4994702;28;20567;-79
2022/10/25 01:17:37;;;;;;;11.90;6.57;;;;;;;14.63;52.82;99939.91;4994386;28;20029;-79
2022/10/25 01:20:23;;;;;;;14.27;7.10;;;;;;;14.57;52.93;99933.53;4994767;28;20027;-79
2022/10/25 01:23:43;;;;;;;11.38;5.80;;;;;;;14.29;53.04;99898.16;4994681;28;20022;-79
2022/10/25 01:26:29;;;;;;;8.95;6.07;;;;;;;14.51;52.81;99936.13;4992468;28;20031;-79
2022/10/25 01:29:31;;;;;;;9.25;6.28;;;;;;;14.45;52.88;99934.25;4992527;28;20061;-79
2022/10/25 01:32:05;;;;;;;11.55;7.15;;;;;;;13.99;52.92;99870.94;4993399;28;20038;-79
2022/10/25 01:34:50;;;;;;;13.82;6.15;;;;;;;14.45;52.58;99935.06;4993120;28;20397;-79
2022/10/25 01:38:01;;;;;;;12.35;6.18;;;;;;;14.40;53.14;99933.97;4994278;28;20034;-79
2022/10/25 01:40:41;;;;;;;13.00;6.10;;;;;;;14.17;53.38;99916.44;4992599;28;20034;-79
2022/10/25 01:43:23;;;;;;;11.70;6.00;;;;;;;14.15;53.14;99909.69;4994491;28;20022;-79
2022/10/25 01:46:09;;;;;;;12.77;6.22;;;;;;;14.25;53.19;99918.97;4992869;28;20057;-79
2022/10/25 01:48:44;;;;;;;8.90;5.40;;;;;;;14.30;53.04;99926.34;4994283;28;20037;-79
2022/10/25 01:51:14;;;;;;;12.40;6.30;;;;;;;13.75;52.84;99826.22;4994169;28;20058;-79
2022/10/25 01:53:51;;;;;;;9.57;5.88;;;;;;;13.96;52.74;99885.41;4992787;28;20049;-79
2022/10/25 01:56:24;;;;;;;12.27;5.95;;;;;;;13.66;53.14;99858.19;4992690;28;20406;-79
2022/10/25 01:59:08;;;;;;;9.20;5.28;;;;;;;14.10;52.93;99920.84;4993874;28;20097;-79
2022/10/25 02:02:05;;;;;;;13.85;6.20;;;;;;;14.10;53.36;99920.03;4992564;28;20205;-79
2022/10/25 02:05:15;;;;;;;13.10;5.43;;;;;;;13.89;53.49;99892.50;4993134;28;20034;-79
2022/10/25 02:07:46;;;;;;;11.95;5.93;;;;;;;14.17;53.15;99920.94;4993482;28;20053;-79
2022/10/25 02:10:21;;;;;;;9.82;6.05;;;;;;;14.15;53.19;99915.00;4992620;28;20033;-79
2022/10/25 02:13:15;;;;;;;9.20;6.03;;;;;;;14.13;53.12;99928.47;4992517;28;20117;-79
2022/10/25 02:15:47;;;;;;;12.10;6.00;;;;;;;13.46;53.05;99824.53;4992386;28;20388;-79
2022/10/25 02:18:17;;;;;;;9.00;6.25;;;;;;;13.71;53.02;99851.50;4992288;28;20026;-79
2022/10/25 02:20:45;;;;;;;13.30;6.53;;;;;;;14.19;52.64;99924.22;4992262;28;20124;-79
2022/10/25 02:23:13;;;;;;;11.13;6.22;;;;;;;13.41;52.34;99809.19;4993547;28;20026;-79
2022/10/25 02:25:41;;;;;;;11.52;5.65;;;;;;;14.15;52.83;99934.41;4993635;28;20117;-79
2022/10/25 02:28:10;;;;;;;13.52;6.63;;;;;;;14.12;52.67;99939.25;4993445;28;20025;-79
2022/10/25 02:30:39;;;;;;;10.48;6.70;;;;;;;14.12;52.78;99933.94;4992212;28;20029;-79
2022/10/25 02:33:05;;;;;;;14.77;6.63;;;;;;;14.11;52.68;99933.13;4993667;28;20483;-79
2022/10/25 02:35:31;;;;;;;9.68;6.25;;;;;;;13.15;52.71;99777.88;4993205;28;20491;-79
2022/10/25 02:37:56;;;;;;;19.88;6.75;;;;;;;13.97;53.08;99926.03;4993204;28;20033;-79
2022/10/25 02:40:22;;;;;;;13.05;6.32;;;;;;;13.40;53.32;99833.25;4993149;28;20029;-79
2022/10/25 02:42:47;;;;;;;13.85;6.85;;;;;;;13.33;53.38;99841.09;4993134;28;20550;-79
2022/10/25 02:45:13;;;;;;;11.23;6.20;;;;;;;13.44;53.69;99845.13;4992804;28;20056;-79
2022/10/25 02:47:38;;;;;;;11.48;6.00;;;;;;;12.78;53.67;99738.34;4993027;28;20157;-79
2022/10/25 02:50:04;;;;;;;13.43;7.00;;;;;;;13.60;53.48;99868.75;4991745;28;20034;-79
2022/10/25 02:52:30;;;;;;;11.07;6.25;;;;;;;13.96;53.74;99927.88;4992848;28;20061;-79
2022/10/25 02:54:55;;;;;;;11.20;6.35;;;;;;;13.52;53.94;99864.38;4991784;28;20046;-79
2022/10/25 02:57:21;;;;;;;15.57;6.88;;;;;;;13.38;53.88;99838.75;4992514;28;20037;-79
2022/10/25 02:59:47;;;;;;;12.60;6.32;;;;;;;13.85;53.80;99923.06;4992797;28;20033;-79
2022/10/25 03:02:12;;;;;;;12.80;6.05;;;;;;;13.83;53.72;99911.81;4992249;28;20033;-79
2022/10/25 03:04:38;;;;;;;9.57;6.75;;;;;;;13.62;54.02;99891.41;4992583;28;20026;-79
2022/10/25 03:07:03;;;;;;;9.98;6.18;;;;;;;13.13;54.00;99818.84;4992436;28;20038;-79
2022/10/25 03:09:29;;;;;;;15.32;6.88;;;;;;;12.97;54.13;99796.84;4992560;28;20495;-79
2022/10/25 03:11:54;;;;;;;9.05;5.93;;;;;;;13.15;54.06;99815.00;4991282;28;20410;-79
2022/10/25 03:14:19;;;;;;;14.88;7.18;;;;;;;13.15;53.95;99824.78;4991105;28;20515;-79
2022/10/25 03:16:45;;;;;;;11.20;6.22;;;;;;;13.41;54.23;99861.41;4992273;28;20026;-79
2022/10/25 03:19:10;;;;;;;12.48;6.47;;;;;;;13.60;54.45;99888.13;4991201;28;20181;-79
2022/10/25 03:21:36;;;;;;;12.75;5.80;;;;;;;13.61;54.33;99891.59;4992626;28;20026;-79
2022/10/25 03:24:01;;;;;;;11.20;6.35;;;;;;;13.49;54.16;99854.16;4992612;28;20022;-79
2022/10/25 03:26:26;;;;;;;11.68;6.32;;;;;;;13.59;54.40;99867.09;4992245;28;20022;-79
2022/10/25 03:28:52;;;;;;;14.40;6.35;;;;;;;13.57;53.98;99871.78;4992330;28;20026;-79
2022/10/25 03:31:19;;;;;;;13.73;6.63;;;;;;;13.60;54.11;99866.09;4991022;28;20101;-79
2022/10/25 03:33:45;;;;;;;16.08;7.35;;;;;;;11.95;54.06;99608.03;4992253;28;20414;-79
2022/10/25 03:36:11;;;;;;;15.32;6.32;;;;;;;13.48;54.21;99881.69;4992263;28;20121;-79
2022/10/25 03:38:36;;;;;;;14.35;6.93;;;;;;;13.39;54.18;99848.34;4990854;28;20495;-79
2022/10/25 03:41:02;;;;;;;9.32;6.45;;;;;;;13.85;54.27;99924.91;4990740;28;20105;-79
2022/10/25 03:43:27;;;;;;;13.57;6.85;;;;;;;13.73;54.34;99913.97;4992075;28;20065;-79
2022/10/25 03:45:53;;;;;;;12.45;7.43;;;;;;;13.19;54.34;99815.47;4992100;28;20513;-79
2022/10/25 03:48:18;;;;;;;12.95;7.38;;;;;;;13.13;54.65;99803.75;4992122;28;20022;-79
2022/10/25 03:50:43;;;;;;;15.80;6.85;;;;;;;13.10;54.38;99817.38;4992006;28;20030;-79
2022/10/25 03:53:09;;;;;;;16.73;7.60;;;;;;;13.56;54.41;99870.13;4992096;28;20026;-79
2022/10/25 03:55:35;;;;;;;13.57;6.25;;;;;;;13.49;54.55;99888.63;4990937;28;20026;-79
2022/10/25 03:58:01;;;;;;;16.88;6.93;;;;;;;12.94;54.71;99772.56;4992196;28;20491;-79
2022/10/25 04:00:26;;;;;;;14.48;6.78;;;;;;;13.07;54.62;99807.16;4992215;28;20109;-79
2022/10/25 04:02:57;;;;;;;13.00;7.05;;;;;;;13.59;54.99;99877.72;4992059;28;20022;-79
2022/10/25 04:05:22;;;;;;;15.38;7.70;;;;;;;12.94;54.77;99788.47;4992351;28;20033;-79
2022/10/25 04:07:48;;;;;;;13.25;7.35;;;;;;;13.17;54.59;99825.44;4991823;28;20047;-79
2022/10/25 04:10:13;;;;;;;13.10;9.40;;;;;;;13.15;55.07;99830.06;4991852;28;20033;-79
2022/10/25 04:12:39;;;;;;;18.13;11.07;;;;;;;12.68;54.83;99771.25;4991764;28;20026;-79
2022/10/25 04:15:04;;;;;;;19.40;12.13;;;;;;;13.11;55.06;99876.53;4993849;28;20022;-79
2022/10/25 04:17:30;;;;;;;24.77;14.13;;;;;;;13.21;55.14;99850.56;4995522;28;20096;-79
2022/10/25 04:19:55;;;;;;;29.33;18.58;;;;;;;12.97;54.95;99814.59;4995839;28;20034;-79
2022/10/25 04:22:21;;;;;;;26.63;16.10;;;;;;;13.27;55.04;99860.41;4994531;28;20423;-79
2022/10/25 04:24:46;;;;;;;29.05;16.90;;;;;;;13.12;54.74;99818.00;4994519;28;20498;-79
2022/10/25 04:27:11;;;;;;;26.42;14.85;;;;;;;13.39;54.78;99850.16;4995765;28;20046;-79
2022/10/25 04:29:37;;;;;;;24.90;13.00;;;;;;;12.77;54.51;99749.94;4995642;28;20499;-79
2022/10/25 04:32:02;;;;;;;23.42;15.07;;;;;;;13.23;54.53;99825.50;4995642;28;20041;-79
2022/10/25 04:34:28;;;;;;;20.70;11.73;;;;;;;12.89;54.76;99772.28;4994228;28;20030;-79
2022/10/25 04:36:53;;;;;;;23.85;11.98;;;;;;;13.02;54.56;99818.31;4995624;28;20076;-79
2022/10/25 04:39:18;;;;;;;18.33;10.63;;;;;;;13.20;55.26;99844.44;4994196;28;20414;-79
2022/10/25 04:41:44;;;;;;;24.00;10.98;;;;;;;13.45;54.83;99895.31;4995580;28;20094;-79
2022/10/25 04:44:09;;;;;;;21.10;9.85;;;;;;;12.30;55.17;99704.34;4995382;28;20415;-79
2022/10/25 04:46:35;;;;;;;17.73;9.07;;;;;;;11.12;55.32;99518.38;4995352;28;20022;-79
2022/10/25 04:49:00;;;;;;;16.17;8.75;;;;;;;13.31;55.58;99889.03;4995247;28;20053;-79
2022/10/25 04:51:25;;;;;;;17.83;9.82;;;;;;;13.29;55.14;99885.75;4995118;28;20077;-79
2022/10/25 04:53:55;;;;;;;21.73;9.80;;;;;;;12.33;55.24;99735.75;4995084;28;20030;-79
2022/10/25 04:56:21;;;;;;;22.90;9.32;;;;;;;12.47;55.37;99779.09;5001873;28;20034;-79
2022/10/25 04:58:46;;;;;;;17.58;9.02;;;;;;;12.81;55.37;99836.00;5014576;28;20029;-79
2022/10/25 05:01:14;;;;;;;18.67;7.78;;;;;;;13.23;55.44;99896.28;5013414;28;20034;-79
2022/10/25 05:03:40;;;;;;;22.50;8.20;;;;;;;12.89;55.58;99841.19;5013398;28;20032;-79
2022/10/25 05:06:05;;;;;;;16.42;9.07;;;;;;;13.23;55.70;99906.88;5014177;28;20022;-79
2022/10/25 05:08:31;;;;;;;19.83;10.00;;;;;;;12.80;55.55;99858.22;5011886;28;20519;-79
2022/10/25 05:10:56;;;;;;;20.00;9.40;;;;;;;13.22;55.43;99906.06;5012012;28;20022;-79
2022/10/25 05:13:21;;;;;;;21.23;10.35;;;;;;;12.79;55.77;99827.41;5012617;28;20097;-79
2022/10/25 05:15:57;;;;;;;19.25;9.52;;;;;;;13.34;55.34;99912.53;5011884;28;20033;-79
2022/10/25 05:18:22;;;;;;;21.40;10.00;;;;;;;13.35;55.45;99895.59;5013215;28;20033;-79
2022/10/25 05:20:56;;;;;;;21.05;10.82;;;;;;;13.51;55.29;99918.44;5011826;28;20033;-79
2022/10/25 05:23:22;;;;;;;26.90;11.05;;;;;;;13.45;55.11;99887.38;5012972;28;20026;-79
2022/10/25 05:25:48;;;;;;;29.35;11.95;;;;;;;12.99;54.98;99808.09;5011337;28;20111;-79
2022/10/25 05:28:14;;;;;;;24.88;12.20;;;;;;;12.97;55.11;99796.03;5013017;28;20022;-79
2022/10/25 05:30:43;;;;;;;25.80;11.20;;;;;;;13.53;54.84;99886.44;5013097;28;20084;-79
2022/10/25 05:33:09;;;;;;;29.20;13.48;;;;;;;13.45;54.93;99871.47;5012974;28;20029;-79
2022/10/25 05:35:34;;;;;;;22.88;12.13;;;;;;;13.56;54.92;99883.41;5012645;28;20030;-80
2022/10/25 05:38:01;;;;;;;23.75;14.30;;;;;;;13.24;54.76;99834.28;5012557;28;20457;-80
2022/10/25 05:40:27;;;;;;;30.77;14.32;;;;;;;13.59;54.59;99872.41;5011339;28;20025;-80
2022/10/25 05:42:53;;;;;;;25.40;14.93;;;;;;;12.98;54.79;99798.50;5012611;28;20080;-79
2022/10/25 05:45:18;;;;;;;30.95;16.95;;;;;;;13.50;54.77;99881.50;5012967;28;20410;-79
2022/10/25 05:47:43;;;;;;;35.85;19.45;;;;;;;13.90;54.92;99947.22;5012450;28;20018;-78
2022/10/25 05:50:09;;;;;;;33.95;20.55;;;;;;;13.17;54.86;99828.91;5012467;28;20065;-80
2022/10/25 05:52:34;;;;;;;33.90;21.75;;;;;;;13.20;54.68;99798.53;5012331;28;20018;-79
2022/10/25 05:55:00;;;;;;;38.85;22.70;;;;;;;13.62;54.46;99866.72;5012647;28;20449;-79
2022/10/25 05:57:25;;;;;;;37.05;22.33;;;;;;;13.24;54.55;99813.88;5010786;28;20029;-80
2022/10/25 05:59:50;;;;;;;41.00;27.95;;;;;;;13.12;54.43;99801.28;5012373;28;20026;-79
2022/10/25 06:02:16;;;;;;;39.80;24.60;;;;;;;13.63;54.65;99863.88;5004644;28;20175;-81
2022/10/25 06:04:41;;;;;;;34.33;25.77;;;;;;;13.70;54.84;99876.38;5005227;28;20025;-80
2022/10/25 06:07:07;;;;;;;34.60;26.48;;;;;;;13.34;54.68;99818.88;4964707;28;1329923;-80
2022/10/25 06:09:32;;;;;;;40.30;27.65;;;;;;;13.63;54.78;99847.97;5012596;28;20528;-81
2022/10/25 06:11:57;;;;;;;55.53;36.00;;;;;;;13.77;54.66;99883.41;5012672;28;20030;-80
2022/10/25 06:14:23;;;;;;;34.80;23.60;;;;;;;12.94;54.53;99740.75;5013026;28;20026;-81
2022/10/25 06:16:48;;;;;;;33.42;22.17;;;;;;;14.07;54.94;99915.09;5012757;28;20052;-81
2022/10/25 06:19:13;;;;;;;34.92;20.40;;;;;;;14.19;54.89;99929.53;5011228;28;20479;-81
2022/10/25 06:21:39;;;;;;;22.00;13.18;;;;;;;13.85;54.76;99858.56;5013180;28;20034;-81
2022/10/25 06:24:05;;;;;;;27.90;14.07;;;;;;;14.17;54.77;99907.66;5006823;28;20060;-81
2022/10/25 06:26:31;;;;;;;26.23;13.23;;;;;;;14.50;54.82;99959.22;5013114;28;20033;-81
2022/10/25 06:29:01;;;;;;;25.60;13.63;;;;;;;14.24;54.91;99906.69;5012542;28;20034;-81
2022/10/25 06:31:28;;;;;;;25.33;14.55;;;;;;;14.41;54.58;99914.38;5013297;28;20474;-80
2022/10/25 06:33:53;;;;;;;22.75;12.18;;;;;;;14.77;54.60;99959.41;5012999;28;20518;-81
2022/10/25 06:36:21;;;;;;;23.98;12.88;;;;;;;13.87;54.64;99803.44;5012772;28;20030;-80
2022/10/25 06:38:47;;;;;;;31.95;14.02;;;;;;;14.90;54.84;99957.69;5012353;28;20026;-81
2022/10/25 06:41:16;;;;;;;28.50;14.48;;;;;;;14.98;54.69;99959.34;4999730;28;20030;-81
2022/10/25 06:43:41;;;;;;;25.48;14.00;;;;;;;14.67;54.59;99914.56;4993011;28;20045;-81
2022/10/25 06:46:09;;;;;;;25.35;13.73;;;;;;;14.92;54.34;99949.50;4994871;28;20022;-80
2022/10/25 06:48:34;;;;;;;27.90;13.65;;;;;;;14.36;54.06;99802.56;5001541;28;20030;-81
2022/10/25 06:51:01;;;;;;;26.23;15.13;;;;;;;15.35;54.21;99968.75;5003628;28;20495;-81
2022/10/25 06:53:27;;;;;;;26.27;15.98;;;;;;;15.20;54.35;99939.63;5010425;28;20691;-80
2022/10/25 06:55:52;;;;;;;32.30;14.80;;;;;;;14.76;54.32;99830.19;5007999;28;20120;-81
2022/10/25 06:58:17;;;;;;;30.35;16.50;;;;;;;15.38;54.25;99940.91;4998157;28;20038;-81
2022/10/25 07:00:43;;;;;;;34.42;16.98;;;;;;;15.33;54.18;99901.59;4992714;28;20113;-80
2022/10/25 07:03:08;;;;;;;33.53;17.42;;;;;;;15.24;53.69;99881.53;5001577;28;20483;-80
2022/10/25 07:05:34;;;;;;;29.45;16.75;;;;;;;15.24;54.01;99854.91;5011691;28;20030;-79
2022/10/25 07:07:59;;;;;;;33.45;18.23;;;;;;;15.27;53.87;99862.50;5007861;28;20488;-80
2022/10/25 07:10:24;;;;;;;29.42;18.38;;;;;;;13.77;53.48;99611.91;5010866;28;20034;-80
2022/10/25 07:12:50;;;;;;;36.80;18.15;;;;;;;15.38;53.32;99847.78;5009610;28;20041;-80
2022/10/25 07:15:15;;;;;;;26.65;15.80;;;;;;;15.60;53.63;99880.41;5011832;28;20156;-80
2022/10/25 07:17:41;;;;;;;30.70;16.80;;;;;;;15.58;53.54;99851.34;5006356;28;20042;-79
2022/10/25 07:20:06;;;;;;;31.38;17.92;;;;;;;15.30;53.62;99786.78;5011621;28;20030;-80
2022/10/25 07:22:32;;;;;;;34.65;15.73;;;;;;;15.51;53.54;99805.22;5011098;28;20160;-79
2022/10/25 07:24:57;;;;;;;32.85;15.38;;;;;;;16.01;53.17;99886.41;5011782;28;20033;-80
2022/10/25 07:27:23;;;;;;;37.83;17.90;;;;;;;15.92;53.08;99865.53;5010129;28;20026;-80
2022/10/25 07:29:48;;;;;;;29.25;14.88;;;;;;;16.57;52.81;99936.63;5009279;28;20119;-80
2022/10/25 07:32:14;;;;;;;27.65;15.23;;;;;;;16.37;52.82;99896.66;5009863;28;20032;-79
2022/10/25 07:34:39;;;;;;;29.75;16.33;;;;;;;16.42;52.61;99902.19;5008478;28;20534;-79
2022/10/25 07:37:06;;;;;;;33.05;19.23;;;;;;;15.04;52.66;99678.53;5010002;28;20457;-82
2022/10/25 07:39:31;;;;;;;30.60;16.95;;;;;;;16.88;52.41;99935.97;4990143;28;20034;-80
2022/10/25 07:41:56;;;;;;;34.22;20.52;;;;;;;16.42;52.42;99851.56;5005467;28;20434;-80
2022/10/25 07:44:22;;;;;;;32.08;16.98;;;;;;;16.30;52.46;99844.38;5010065;28;20029;-80
2022/10/25 07:46:49;;;;;;;26.88;14.30;;;;;;;16.26;52.47;99792.53;5010290;28;20025;-80
2022/10/25 07:49:14;;;;;;;22.17;12.35;;;;;;;16.65;52.17;99848.44;5011744;28;20034;-80
2022/10/25 07:51:40;;;;;;;39.63;18.67;;;;;;;16.95;52.06;99872.75;5008169;28;20041;-80
2022/10/25 07:54:05;;;;;;;28.10;17.73;;;;;;;16.73;52.30;99829.56;5009512;28;20418;-80
2022/10/25 07:56:31;;;;;;;24.20;9.60;;;;;;;17.09;51.65;99885.03;5009299;28;20032;-80
2022/10/25 07:58:56;;;;;;;20.73;8.93;;;;;;;16.76;51.52;99806.97;5008776;28;20517;-80
2022/10/25 08:01:27;;;;;;;21.90;10.95;;;;;;;17.39;51.32;99898.66;5009207;28;20056;-81
2022/10/25 08:03:53;;;;;;;20.50;11.98;;;;;;;16.95;51.31;99799.91;4999034;28;20054;-80
2022/10/25 08:06:20;;;;;;;20.98;9.02;;;;;;;17.74;51.00;99917.78;5004038;28;20691;-80
2022/10/25 08:08:46;;;;;;;20.77;10.95;;;;;;;17.52;50.86;99864.91;5009434;28;20418;-80
2022/10/25 08:11:12;;;;;;;18.30;9.40;;;;;;;17.53;50.51;99854.00;4994940;28;20554;-80
2022/10/25 08:13:38;;;;;;;23.98;8.57;;;;;;;17.98;50.54;99902.84;5009689;28;20034;-80
2022/10/25 08:16:04;;;;;;;15.73;7.30;;;;;;;17.55;50.33;99832.44;5005444;28;20514;-80
2022/10/25 08:18:30;;;;;;;22.85;9.27;;;;;;;17.92;50.31;99881.53;5021201;28;20056;-80
2022/10/25 08:20:56;;;;;;;18.70;9.10;;;;;;;17.99;49.90;99874.25;5006869;28;20471;-80
2022/10/25 08:23:22;;;;;;;27.00;11.63;;;;;;;17.90;49.90;99847.00;5000735;28;20068;-80
2022/10/25 08:25:48;;;;;;;23.73;8.52;;;;;;;18.05;49.63;99852.84;5010365;28;20026;-79
2022/10/25 08:28:13;;;;;;;21.17;9.18;;;;;;;17.53;49.65;99781.91;5010507;28;20030;-80
2022/10/25 08:30:40;;;;;;;24.48;14.77;;;;;;;18.38;49.34;99859.72;5010418;28;20033;-80
2022/10/25 08:33:05;;;;;;;19.58;11.63;;;;;;;17.82;49.20;99761.78;5010377;28;20458;-80
2022/10/25 08:35:31;;;;;;;21.33;9.30;;;;;;;18.15;48.92;99792.72;5008940;28;20038;-80
2022/10/25 08:37:59;;;;;;;23.05;9.82;;;;;;;18.42;48.88;99844.88;5009658;28;20032;-81
2022/10/25 08:40:41;;;;;;;19.40;9.38;;;;;;;18.54;48.79;99815.53;5009575;28;20491;-79
2022/10/25 08:43:13;;;;;;;16.90;9.75;;;;;;;18.81;48.51;99848.22;5025800;28;20032;-80
2022/10/25 08:45:57;;;;;;;22.10;8.68;;;;;;;19.06;48.10;99870.31;5009791;28;20030;-79
2022/10/25 08:48:31;;;;;;;19.23;8.25;;;;;;;18.84;47.83;99815.66;5000832;28;20029;-80
2022/10/25 08:51:17;;;;;;;23.15;12.40;;;;;;;18.88;47.79;99806.94;5005957;28;20159;-81
2022/10/25 08:53:48;;;;;;;16.55;7.63;;;;;;;19.21;47.50;99840.47;5005088;28;20044;-80
2022/10/25 08:56:17;;;;;;;26.98;15.15;;;;;;;18.99;47.40;99786.63;5005102;28;20022;-79
2022/10/25 08:58:54;;;;;;;26.05;14.02;;;;;;;18.03;47.20;99616.31;5003182;28;20026;-79
2022/10/25 09:01:28;;;;;;;24.15;9.00;;;;;;;18.93;46.87;99758.94;4996864;28;20034;-79
2022/10/25 09:03:54;;;;;;;21.30;10.98;;;;;;;18.50;46.95;99662.75;4999435;28;20065;-80
2022/10/25 09:06:44;;;;;;;20.42;8.15;;;;;;;19.22;46.27;99775.19;5011145;28;20115;-80
2022/10/25 09:09:30;;;;;;;17.60;7.53;;;;;;;19.88;45.94;99844.66;5006846;28;20030;-79
2022/10/25 09:12:10;;;;;;;17.98;7.05;;;;;;;19.66;45.46;99796.19;4993161;28;20065;-79
2022/10/25 09:15:06;;;;;;;22.90;7.10;;;;;;;20.08;45.73;99839.00;4994612;28;20034;-80
2022/10/25 09:17:42;;;;;;;19.27;6.80;;;;;;;19.91;45.06;99804.00;5008537;28;20033;-80
2022/10/25 09:20:42;;;;;;;17.55;7.13;;;;;;;20.27;44.87;99835.16;5013757;28;20029;-78
2022/10/25 09:23:28;;;;;;;12.57;6.93;;;;;;;20.13;44.59;99798.09;5009362;28;20128;-79
2022/10/25 09:26:31;;;;;;;17.02;6.90;;;;;;;20.48;44.46;99823.03;5015390;28;20033;-79
2022/10/25 09:29:17;;;;;;;19.55;6.78;;;;;;;19.99;44.41;99733.16;5009275;28;20498;-80
2022/10/25 09:31:50;;;;;;;19.17;6.30;;;;;;;20.63;44.15;99815.31;5010586;28;20034;-80
2022/10/25 09:34:19;;;;;;;19.15;8.27;;;;;;;20.16;44.21;99723.38;5013921;28;20034;-82
2022/10/25 09:36:53;;;;;;;23.02;8.90;;;;;;;20.43;44.08;99750.50;5012439;28;20030;-80
2022/10/25 09:39:26;;;;;;;16.05;6.55;;;;;;;20.30;43.83;99731.97;5010349;28;20034;-79
2022/10/25 09:41:53;;;;;;;22.27;11.65;;;;;;;20.92;43.72;99808.13;5011866;28;20026;-80
2022/10/25 09:44:34;;;;;;;15.90;7.55;;;;;;;21.02;43.26;99801.31;5012215;28;20022;-79
2022/10/25 09:47:02;;;;;;;22.88;14.23;;;;;;;21.10;43.38;99800.94;5012296;28;20026;-79
2022/10/25 09:49:45;;;;;;;21.88;8.48;;;;;;;20.45;43.10;99669.81;5012218;28;20116;-79
2022/10/25 09:52:25;;;;;;;16.45;7.25;;;;;;;21.28;42.74;99781.16;5013360;28;20034;-81
2022/10/25 09:55:10;;;;;;;22.08;10.30;;;;;;;21.13;42.49;99752.94;5009792;28;20049;-81
2022/10/25 09:57:35;;;;;;;35.08;20.17;;;;;;;21.09;42.60;99750.97;5000175;28;20470;-80
2022/10/25 10:00:01;;;;;;;33.63;19.92;;;;;;;21.42;42.43;99759.09;5012608;28;20021;-80
2022/10/25 10:02:26;;;;;;;30.60;15.10;;;;;;;21.12;42.60;99700.31;5011971;28;20029;-81
2022/10/25 10:04:53;;;;;;;25.38;12.90;;;;;;;21.48;42.32;99747.38;5011801;28;20557;-81
2022/10/25 10:07:36;;;;;;;20.55;11.88;;;;;;;21.72;42.10;99774.13;5013152;28;20053;-80
2022/10/25 10:10:06;;;;;;;26.35;19.52;;;;;;;21.19;42.13;99675.97;5011462;28;20018;-80
2022/10/25 10:12:41;;;;;;;29.77;19.30;;;;;;;21.82;42.08;99760.84;5010403;28;20084;-80
2022/10/25 10:15:29;;;;;;;27.60;15.70;;;;;;;21.85;41.68;99757.66;5012595;28;20029;-80
2022/10/25 10:18:33;;;;;;;17.20;10.25;;;;;;;21.84;41.40;99754.16;5010075;28;20088;-80
2022/10/25 10:21:01;;;;;;;21.38;7.25;;;;;;;21.88;41.46;99747.22;4990669;28;20022;-81
2022/10/25 10:23:30;;;;;;;17.27;7.47;;;;;;;21.92;41.76;99758.28;4975782;28;20026;-80
2022/10/25 10:26:00;;;;;;;20.85;8.07;;;;;;;21.27;41.50;99639.88;5009919;28;20045;-80
2022/10/25 10:28:26;;;;;;;22.20;11.18;;;;;;;21.23;41.22;99658.34;5011280;28;20020;-80
2022/10/25 10:30:53;;;;;;;34.42;23.27;;;;;;;21.55;41.17;99664.78;5012417;28;20374;-81
2022/10/25 10:33:19;;;;;;;33.83;20.70;;;;;;;21.86;41.19;99719.78;5010492;28;20117;-78
2022/10/25 10:35:45;;;;;;;28.02;15.75;;;;;;;21.64;41.23;99673.22;5010528;28;20486;-81
2022/10/25 10:38:24;;;;;;;21.23;13.30;;;;;;;22.06;41.38;99730.03;5008993;28;20091;-80
2022/10/25 10:40:51;;;;;;;21.17;10.00;;;;;;;21.45;41.25;99631.53;5005418;28;20034;-80
2022/10/25 10:43:32;;;;;;;22.50;12.10;;;;;;;21.50;41.12;99653.94;5010950;28;20025;-80
2022/10/25 10:46:06;;;;;;;21.88;10.50;;;;;;;21.00;41.39;99561.84;5009682;28;20273;-80
2022/10/25 10:48:34;;;;;;;33.10;17.17;;;;;;;22.11;41.39;99713.13;4990939;28;20029;-81
2022/10/25 10:51:01;;;;;;;24.67;9.30;;;;;;;21.86;41.08;99666.00;4998986;28;20022;-81
2022/10/25 10:53:31;;;;;;;31.08;16.30;;;;;;;22.17;41.18;99704.06;5005475;28;20057;-80
2022/10/25 10:56:03;;;;;;;22.97;9.70;;;;;;;20.62;41.08;99456.88;5001645;28;20108;-80
2022/10/25 10:58:35;;;;;;;;;;;;;;;22.08;41.36;99703.69;5010445;28;20406;-80
2022/10/25 11:01:09;;;;;;;22.90;9.07;;;;;;;21.62;41.35;99620.81;5010851;28;19916;-80
2022/10/25 11:03:38;;;;;;;21.17;8.48;;;;;;;22.18;41.29;99711.91;5010785;28;20022;-82
2022/10/25 11:06:12;;;;;;;20.10;9.80;;;;;;;21.40;41.07;99578.56;5011377;28;20026;-80
2022/10/25 11:08:38;;;;;;;22.10;9.60;;;;;;;21.64;41.26;99621.38;5010951;28;20045;-80
2022/10/25 11:11:21;;;;;;;18.85;7.38;;;;;;;22.20;40.96;99698.19;5009695;28;20033;-80
2022/10/25 11:13:57;;;;;;;18.38;8.80;;;;;;;22.01;41.01;99662.72;5007902;28;21356;-80
2022/10/25 11:16:41;;;;;;;25.02;13.32;;;;;;;22.23;41.01;99694.19;5009183;28;20053;-80
2022/10/25 11:19:20;;;;;;;24.38;10.95;;;;;;;21.90;41.19;99639.44;4997145;28;20032;-79
2022/10/25 11:21:52;;;;;;;17.33;7.07;;;;;;;22.26;41.08;99685.63;4996107;28;20026;-80
2022/10/25 11:24:48;;;;;;;17.17;6.90;;;;;;;22.25;41.00;99682.13;5020009;28;20037;-81
2022/10/25 11:27:45;;;;;;;14.38;7.63;;;;;;;22.24;40.92;99680.50;5024490;28;20518;-79
2022/10/25 11:30:18;;;;;;;24.10;12.82;;;;;;;21.86;40.86;99619.50;5011199;28;20032;-80
2022/10/25 11:33:00;;;;;;;23.58;7.43;;;;;;;22.29;40.74;99682.44;4994763;28;20120;-80
2022/10/25 11:35:47;;;;;;;14.55;6.35;;;;;;;22.29;40.53;99669.78;4991638;28;20064;-80